TimeCDT,TemperatureF,Dew PointF,Humidity,Sea Level PressureIn,VisibilityMPH,Wind Direction,Wind SpeedMPH,Gust SpeedMPH,PrecipitationIn,Events,Conditions,WindDirDegrees,DateUTC
12:53 AM,32.0,25.0,75,30.12,10.0,WNW,5.8,-,N/A,,Clear,290,2013-03-12 05:53:00
1:53 AM,32.0,26.1,79,30.12,10.0,WNW,8.1,-,N/A,,Clear,290,2013-03-12 06:53:00
2:53 AM,32.0,26.1,79,30.12,10.0,WNW,6.9,-,N/A,,Clear,300,2013-03-12 07:53:00
3:53 AM,32.0,26.6,80,30.08,10.0,WNW,8.1,-,N/A,,Clear,300,2013-03-12 08:53:00
4:53 AM,30.9,24.1,76,30.13,10.0,West,9.2,-,N/A,,Clear,280,2013-03-12 09:53:00
5:53 AM,32.0,24.1,73,30.14,10.0,WNW,10.4,-,N/A,,Overcast,300,2013-03-12 10:53:00
6:53 AM,30.9,23.0,72,30.18,10.0,NW,13.8,-,N/A,,Clear,320,2013-03-12 11:53:00
7:53 AM,30.9,19.9,64,30.20,10.0,NNW,18.4,25.3,N/A,,Clear,330,2013-03-12 12:53:00
8:53 AM,32.0,19.9,61,30.23,10.0,NW,24.2,29.9,N/A,,Clear,320,2013-03-12 13:53:00
9:53 AM,33.1,19.0,56,30.25,10.0,NNW,25.3,36.8,N/A,,Clear,330,2013-03-12 14:53:00
10:53 AM,34.0,19.0,54,30.27,10.0,NW,31.1,36.8,N/A,,Partly Cloudy,320,2013-03-12 15:53:00
11:53 AM,35.1,19.0,52,30.30,10.0,NW,32.2,46.0,N/A,,Mostly Cloudy,310,2013-03-12 16:53:00
12:53 PM,36.0,19.0,50,30.30,10.0,NNW,25.3,33.4,N/A,,Partly Cloudy,330,2013-03-12 17:53:00
1:53 PM,39.0,19.9,46,30.29,10.0,NNW,21.9,28.8,N/A,,Scattered Clouds,330,2013-03-12 18:53:00
2:53 PM,39.0,18.0,43,30.28,10.0,NW,26.5,32.2,N/A,,Mostly Cloudy,320,2013-03-12 19:53:00
3:53 PM,41.0,18.0,40,30.28,10.0,NNW,20.7,31.1,N/A,,Mostly Cloudy,330,2013-03-12 20:53:00
4:53 PM,41.0,12.9,32,30.28,10.0,NW,25.3,32.2,N/A,,Partly Cloudy,320,2013-03-12 21:53:00
5:53 PM,39.9,9.0,28,30.30,10.0,NNW,24.2,33.4,N/A,,Clear,340,2013-03-12 22:53:00
6:53 PM,37.9,10.0,32,30.31,10.0,NW,17.3,-,N/A,,Clear,320,2013-03-12 23:53:00
7:53 PM,34.0,12.0,40,30.33,10.0,NNW,11.5,-,N/A,,Clear,340,2013-03-13 00:53:00
8:53 PM,28.9,16.0,58,30.35,10.0,North,8.1,-,N/A,,Clear,360,2013-03-13 01:53:00
9:53 PM,27.0,19.0,72,30.38,10.0,Calm,Calm,-,N/A,,Clear,0,2013-03-13 02:53:00
10:53 PM,26.1,16.0,66,30.39,10.0,Calm,Calm,-,N/A,,Clear,0,2013-03-13 03:53:00
11:53 PM,25.0,16.0,69,30.39,10.0,NNW,3.5,-,N/A,,Clear,330,2013-03-13 04:53:00